createdAt,value
2023-03-24T00:00:01.892Z,9.70
2023-03-24T00:02:29.341Z,8.35
2023-03-24T00:04:58.791Z,8.05
2023-03-24T00:07:26.031Z,8.85
2023-03-24T00:09:53.928Z,8.13
2023-03-24T00:12:21.038Z,6.07
2023-03-24T00:14:47.941Z,8.52
2023-03-24T00:17:17.651Z,7.60
2023-03-24T00:19:47.422Z,6.57
2023-03-24T00:22:18.267Z,7.43
2023-03-24T00:24:46.434Z,4.97
2023-03-24T00:27:13.822Z,5.72
2023-03-24T00:29:41.435Z,5.82
2023-03-24T00:32:08.739Z,5.22
2023-03-24T00:34:38.515Z,5.25
2023-03-24T00:37:06.324Z,6.18
2023-03-24T00:39:33.244Z,5.57
2023-03-24T00:42:01.891Z,6.00
2023-03-24T00:44:28.757Z,4.90
2023-03-24T00:46:55.942Z,6.47
2023-03-24T00:49:42.140Z,7.05
2023-03-24T00:52:13.597Z,7.13
2023-03-24T00:54:40.546Z,6.93
2023-03-24T00:57:08.296Z,7.72
2023-03-24T00:59:42.421Z,6.55
2023-03-24T01:02:11.968Z,7.97
2023-03-24T01:04:39.588Z,6.72
2023-03-24T01:07:07.897Z,9.10
2023-03-24T01:09:36.407Z,6.47
2023-03-24T01:12:04.352Z,9.60
2023-03-24T01:14:32.431Z,9.50
2023-03-24T01:16:59.953Z,7.95
2023-03-24T01:19:27.011Z,7.80
2023-03-24T01:21:54.492Z,8.90
2023-03-24T01:24:21.900Z,8.05
2023-03-24T01:26:49.106Z,7.20
2023-03-24T01:29:15.928Z,6.22
2023-03-24T01:31:43.117Z,6.60
2023-03-24T01:34:10.004Z,6.40
2023-03-24T01:36:37.095Z,5.32
2023-03-24T01:39:05.230Z,6.22
2023-03-24T01:41:35.440Z,6.35
2023-03-24T01:44:02.482Z,9.13
2023-03-24T01:46:29.854Z,6.63
2023-03-24T01:49:05.081Z,6.60
2023-03-24T01:51:39.656Z,5.15
2023-03-24T01:54:17.176Z,6.13
2023-03-24T01:56:47.757Z,6.22
2023-03-24T01:59:18.862Z,7.25
2023-03-24T02:01:45.998Z,7.50
2023-03-24T02:04:12.848Z,8.00
2023-03-24T02:06:44.008Z,6.75
2023-03-24T02:09:11.543Z,6.57
2023-03-24T02:11:39.746Z,6.38
2023-03-24T02:14:07.309Z,7.47
2023-03-24T02:16:46.674Z,6.60
2023-03-24T02:19:47.728Z,8.77
2023-03-24T02:22:39.329Z,6.85
2023-03-24T02:25:37.786Z,7.72
2023-03-24T02:28:14.498Z,8.13
2023-03-24T02:30:53.424Z,7.35
2023-03-24T02:33:47.588Z,7.82
2023-03-24T02:36:27.153Z,9.27
2023-03-24T02:39:31.786Z,8.18
2023-03-24T02:42:07.447Z,9.10
2023-03-24T02:45:12.999Z,8.30
2023-03-24T02:48:17.291Z,8.73
2023-03-24T02:51:06.745Z,9.98
2023-03-24T02:53:51.818Z,7.95
2023-03-24T02:56:27.400Z,8.82
2023-03-24T02:58:58.472Z,9.07
2023-03-24T03:01:32.414Z,9.27
2023-03-24T03:04:11.831Z,10.07
2023-03-24T03:06:40.378Z,10.38
2023-03-24T03:09:12.236Z,9.90
2023-03-24T03:11:40.184Z,10.18
2023-03-24T03:14:14.863Z,9.88
2023-03-24T03:17:04.271Z,8.45
2023-03-24T03:19:52.602Z,10.82
2023-03-24T03:22:24.771Z,9.18
2023-03-24T03:24:53.137Z,10.20
2023-03-24T03:27:22.811Z,11.30
2023-03-24T03:29:54.390Z,9.23
2023-03-24T03:32:28.462Z,12.18
2023-03-24T03:35:14.648Z,10.18
2023-03-24T03:37:56.832Z,11.43
2023-03-24T03:40:27.005Z,9.75
2023-03-24T03:42:54.112Z,10.73
2023-03-24T03:45:20.931Z,9.77
2023-03-24T03:47:48.085Z,9.73
2023-03-24T03:50:14.958Z,12.02
2023-03-24T03:52:44.622Z,9.82
2023-03-24T03:55:11.994Z,12.35
2023-03-24T03:57:39.209Z,9.50
2023-03-24T04:00:08.326Z,9.82
2023-03-24T04:02:54.370Z,12.88
2023-03-24T04:05:28.218Z,12.40
2023-03-24T04:08:46.579Z,13.95
2023-03-24T04:11:19.266Z,12.65
2023-03-24T04:14:12.622Z,12.70
2023-03-24T04:16:46.890Z,14.25
2023-03-24T04:19:17.227Z,14.82
2023-03-24T04:22:04.950Z,13.13
2023-03-24T04:24:57.866Z,14.30
2023-03-24T04:27:38.543Z,14.48
2023-03-24T04:30:38.115Z,13.10
2023-03-24T04:33:07.215Z,12.52
2023-03-24T04:35:36.559Z,14.82
2023-03-24T04:38:10.786Z,14.48
2023-03-24T04:43:09.853Z,14.32
2023-03-24T04:45:37.030Z,15.63
2023-03-24T04:48:05.312Z,14.27
2023-03-24T04:50:34.369Z,14.32
2023-03-24T04:53:01.218Z,14.73
2023-03-24T04:55:34.446Z,12.43
2023-03-24T04:58:01.228Z,15.40
2023-03-24T05:00:28.358Z,14.98
2023-03-24T05:02:55.111Z,15.63
2023-03-24T05:05:22.367Z,14.40
2023-03-24T05:07:49.342Z,11.98
2023-03-24T05:10:16.946Z,14.63
2023-03-24T05:12:43.736Z,10.60
2023-03-24T05:15:11.249Z,11.73
2023-03-24T05:17:38.082Z,10.15
2023-03-24T05:20:11.553Z,11.48
2023-03-24T05:22:38.833Z,12.25
2023-03-24T05:25:06.338Z,9.45
2023-03-24T05:27:33.096Z,10.90
2023-03-24T05:30:00.389Z,10.45
2023-03-24T05:32:27.401Z,10.75
2023-03-24T05:34:54.543Z,8.68
2023-03-24T05:37:21.321Z,10.15
2023-03-24T05:39:48.517Z,10.45
2023-03-24T05:42:16.271Z,9.98
2023-03-24T05:44:43.467Z,10.00
2023-03-24T05:47:10.379Z,9.18
2023-03-24T05:49:38.093Z,9.95
2023-03-24T05:52:05.974Z,12.02
2023-03-24T05:54:34.047Z,9.80
2023-03-24T05:57:00.915Z,11.05
2023-03-24T05:59:28.558Z,9.60
2023-03-24T06:01:58.597Z,10.25
2023-03-24T06:04:29.830Z,11.25
2023-03-24T06:07:01.169Z,10.82
2023-03-24T06:09:29.202Z,9.85
2023-03-24T06:11:56.415Z,11.00
2023-03-24T06:14:23.458Z,11.52
2023-03-24T06:16:50.304Z,12.43
2023-03-24T06:19:17.495Z,13.15
2023-03-24T06:21:44.783Z,13.10
2023-03-24T06:24:14.845Z,12.07
2023-03-24T06:26:50.157Z,14.30
2023-03-24T06:29:20.160Z,12.32
2023-03-24T06:31:48.170Z,10.23
2023-03-24T06:34:15.489Z,9.65
2023-03-24T06:36:42.260Z,11.77
2023-03-24T06:39:09.400Z,11.23
2023-03-24T06:41:36.147Z,11.85
2023-03-24T06:44:03.728Z,10.70
2023-03-24T06:46:30.744Z,10.57
2023-03-24T06:48:57.922Z,10.85
2023-03-24T06:51:24.779Z,13.45
2023-03-24T06:53:51.893Z,10.40
2023-03-24T06:56:21.028Z,10.18
2023-03-24T06:58:49.410Z,11.35
2023-03-24T07:01:16.334Z,10.00
2023-03-24T07:03:44.002Z,10.68
2023-03-24T07:06:10.804Z,10.82
2023-03-24T07:08:38.859Z,11.90
2023-03-24T07:11:07.569Z,9.60
2023-03-24T07:13:34.805Z,10.25
2023-03-24T07:16:01.600Z,9.88
2023-03-24T07:18:28.730Z,10.68
2023-03-24T07:20:55.475Z,9.77
2023-03-24T07:23:22.558Z,9.77
2023-03-24T07:25:49.324Z,9.70
2023-03-24T07:28:17.627Z,10.55
2023-03-24T07:30:44.390Z,11.18
2023-03-24T07:33:12.490Z,9.30
2023-03-24T07:35:40.217Z,9.02
2023-03-24T07:38:07.395Z,9.85
2023-03-24T07:40:35.534Z,7.90
2023-03-24T07:43:07.535Z,8.27
2023-03-24T07:45:34.409Z,8.35
2023-03-24T07:48:04.518Z,8.93
2023-03-24T07:50:31.907Z,8.35
2023-03-24T07:53:00.236Z,6.88
2023-03-24T07:55:27.349Z,9.02
2023-03-24T07:57:54.545Z,10.32
2023-03-24T08:00:21.846Z,9.25
2023-03-24T08:02:50.503Z,8.95
2023-03-24T08:05:19.564Z,10.52
2023-03-24T08:07:53.550Z,8.30
2023-03-24T08:10:22.766Z,8.70
2023-03-24T08:12:50.430Z,7.72
2023-03-24T08:15:17.586Z,9.95
2023-03-24T08:17:44.792Z,9.18
2023-03-24T08:20:14.775Z,12.85
2023-03-24T08:22:42.874Z,9.75
2023-03-24T08:25:11.300Z,9.82
2023-03-24T08:27:39.149Z,10.85
2023-03-24T08:30:08.392Z,10.18
2023-03-24T08:32:35.667Z,12.38
2023-03-24T08:35:05.127Z,11.70
2023-03-24T08:37:32.308Z,9.38
2023-03-24T08:40:05.493Z,9.07
2023-03-24T08:42:32.646Z,13.27
2023-03-24T08:44:59.408Z,9.95
2023-03-24T08:47:26.554Z,9.68
2023-03-24T08:49:58.814Z,9.60
2023-03-24T08:52:26.107Z,7.90
2023-03-24T08:54:52.868Z,9.20
2023-03-24T08:57:19.984Z,9.40
2023-03-24T08:59:48.100Z,11.75
2023-03-24T09:02:16.414Z,10.48
2023-03-24T09:04:43.352Z,10.98
2023-03-24T09:07:10.471Z,12.07
2023-03-24T09:09:37.364Z,13.73
2023-03-24T09:12:04.640Z,12.93
2023-03-24T09:14:31.403Z,10.23
2023-03-24T09:16:58.563Z,11.48
2023-03-24T09:19:25.341Z,9.73
2023-03-24T09:21:52.403Z,8.90
2023-03-24T09:24:19.188Z,10.77
2023-03-24T09:26:46.535Z,8.25
2023-03-24T09:29:13.298Z,9.43
2023-03-24T09:31:40.357Z,8.90
2023-03-24T09:34:07.146Z,11.75
2023-03-24T09:36:34.282Z,8.98
2023-03-24T09:39:01.077Z,10.02
2023-03-24T09:41:30.790Z,10.30
2023-03-24T09:44:00.784Z,8.15
2023-03-24T09:46:34.666Z,9.30
2023-03-24T09:49:01.476Z,11.93
2023-03-24T09:51:36.697Z,8.60
2023-03-24T09:54:11.977Z,11.70
2023-03-24T09:56:39.836Z,8.65
2023-03-24T09:59:14.442Z,10.70
2023-03-24T10:01:41.797Z,10.20
2023-03-24T10:04:20.311Z,8.15
2023-03-24T10:06:49.104Z,8.60
2023-03-24T10:09:32.038Z,8.60
2023-03-24T10:12:05.320Z,9.90
2023-03-24T10:14:53.571Z,11.45
2023-03-24T10:17:30.041Z,9.07
2023-03-24T10:20:26.818Z,9.88
2023-03-24T10:23:12.851Z,10.48
2023-03-24T10:25:51.728Z,8.05
2023-03-24T10:28:40.030Z,10.60
2023-03-24T10:31:11.180Z,8.45
2023-03-24T10:33:40.370Z,10.18
2023-03-24T10:36:10.987Z,7.97
2023-03-24T10:38:38.210Z,7.50
2023-03-24T10:41:05.214Z,8.55
2023-03-24T10:43:33.399Z,8.98
2023-03-24T10:46:00.244Z,10.18
2023-03-24T10:49:12.006Z,9.35
2023-03-24T10:51:39.903Z,9.38
2023-03-24T10:54:26.005Z,8.35
2023-03-24T10:57:05.324Z,11.50
2023-03-24T10:59:47.769Z,11.20
2023-03-24T11:02:20.391Z,9.68
2023-03-24T11:05:20.289Z,7.72
2023-03-24T11:07:48.921Z,7.95
2023-03-24T11:10:18.982Z,10.07
2023-03-24T11:12:55.153Z,10.10
2023-03-24T11:15:23.879Z,9.75
2023-03-24T11:17:59.786Z,8.63
2023-03-24T11:20:32.376Z,8.85
2023-03-24T11:23:20.224Z,10.55
2023-03-24T11:26:03.482Z,10.43
2023-03-24T11:28:30.493Z,9.93
2023-03-24T11:30:57.521Z,8.98
2023-03-24T11:33:35.952Z,9.73
2023-03-24T11:36:33.221Z,9.68
2023-03-24T11:39:14.771Z,11.32
2023-03-24T11:41:44.317Z,9.65
2023-03-24T11:44:20.212Z,12.30
2023-03-24T11:46:55.951Z,12.55
2023-03-24T11:49:25.000Z,11.02
2023-03-24T11:51:53.994Z,8.98
2023-03-24T11:54:22.194Z,9.80
2023-03-24T11:56:54.112Z,10.30
2023-03-24T11:59:40.964Z,9.48
2023-03-24T12:02:08.004Z,8.43
2023-03-24T12:04:42.477Z,10.45
2023-03-24T12:07:27.902Z,11.20
2023-03-24T12:09:57.586Z,10.18
2023-03-24T12:12:38.487Z,11.05
2023-03-24T12:15:41.302Z,9.35
2023-03-24T12:18:51.797Z,8.52
2023-03-24T12:21:27.542Z,8.88
2023-03-24T12:23:59.091Z,9.52
2023-03-24T12:26:30.000Z,10.05
2023-03-24T12:29:16.260Z,10.65
2023-03-24T12:31:49.629Z,11.32
2023-03-24T12:34:31.983Z,7.88
2023-03-24T12:37:13.261Z,7.95
2023-03-24T12:39:49.264Z,8.25
2023-03-24T12:42:16.469Z,10.80
2023-03-24T12:45:06.925Z,9.35
2023-03-24T12:47:45.702Z,13.90
2023-03-24T12:50:37.261Z,10.23
2023-03-24T12:53:11.025Z,9.65
2023-03-24T12:55:42.387Z,9.05
2023-03-24T12:58:13.651Z,9.20
2023-03-24T13:00:45.309Z,7.05
2023-03-24T13:03:14.712Z,9.05
2023-03-24T13:05:50.595Z,7.10
2023-03-24T13:08:23.029Z,7.78
2023-03-24T13:10:50.849Z,8.75
2023-03-24T13:13:19.490Z,6.97
2023-03-24T13:15:48.908Z,7.13
2023-03-24T13:18:26.377Z,6.97
2023-03-24T13:20:56.001Z,5.72
2023-03-24T13:23:39.386Z,8.30
2023-03-24T13:26:09.944Z,6.38
2023-03-24T13:28:58.190Z,6.55
2023-03-24T13:31:25.501Z,8.65
2023-03-24T13:33:52.577Z,7.95
2023-03-24T13:36:39.136Z,9.55
2023-03-24T13:39:08.350Z,9.82
2023-03-24T13:41:37.670Z,10.40
2023-03-24T13:44:35.441Z,9.23
2023-03-24T13:47:13.203Z,9.82
2023-03-24T13:49:40.775Z,10.05
2023-03-24T13:52:27.140Z,11.32
2023-03-24T13:54:58.758Z,13.95
2023-03-24T13:57:26.631Z,10.48
2023-03-24T14:00:12.018Z,12.55
2023-03-24T14:02:50.547Z,14.02
2023-03-24T14:05:26.352Z,13.77
2023-03-24T14:08:05.619Z,15.68
2023-03-24T14:10:44.586Z,17.70
2023-03-24T14:13:11.811Z,15.82
2023-03-24T14:15:58.878Z,14.77
2023-03-24T14:18:26.558Z,13.20
2023-03-24T14:20:56.576Z,13.45
2023-03-24T14:23:24.247Z,12.48
2023-03-24T14:25:55.404Z,11.55
2023-03-24T14:28:26.655Z,11.75
2023-03-24T14:31:00.298Z,10.02
2023-03-24T14:33:27.535Z,9.18
2023-03-24T14:36:12.077Z,10.05
2023-03-24T14:38:41.413Z,10.40
2023-03-24T14:41:12.896Z,10.40
2023-03-24T14:43:39.925Z,10.05
2023-03-24T14:46:36.765Z,9.00
2023-03-24T14:49:30.349Z,12.20
2023-03-24T14:52:12.666Z,9.32
2023-03-24T14:54:46.159Z,12.75
2023-03-24T14:57:40.726Z,9.32
2023-03-24T15:01:07.226Z,8.07
2023-03-24T15:03:38.434Z,9.68
2023-03-24T15:06:12.636Z,8.18
2023-03-24T15:08:39.504Z,7.35
2023-03-24T15:11:07.209Z,7.95
2023-03-24T15:13:40.818Z,7.45
2023-03-24T15:16:10.828Z,5.82
2023-03-24T15:19:01.899Z,9.38
2023-03-24T15:21:32.566Z,7.28
2023-03-24T15:24:01.468Z,6.45
2023-03-24T15:26:30.076Z,6.95
2023-03-24T15:28:58.673Z,8.13
2023-03-24T15:31:30.233Z,5.70
2023-03-24T15:34:27.364Z,7.55
2023-03-24T15:36:56.510Z,8.52
2023-03-24T15:39:37.022Z,11.40
2023-03-24T15:42:08.931Z,12.38
2023-03-24T15:44:39.412Z,13.82
2023-03-24T15:47:24.291Z,11.75
2023-03-24T15:49:56.491Z,8.23
2023-03-24T15:52:27.784Z,11.52
2023-03-24T15:54:57.303Z,8.65
2023-03-24T15:57:25.053Z,10.80
2023-03-24T15:59:56.235Z,9.88
2023-03-24T16:02:33.479Z,9.77
2023-03-24T16:05:10.918Z,8.05
2023-03-24T16:07:40.795Z,9.02
2023-03-24T16:10:08.830Z,6.97
2023-03-24T16:12:36.641Z,6.47
2023-03-24T16:15:05.812Z,10.68
2023-03-24T16:17:33.237Z,8.23
2023-03-24T16:20:00.337Z,11.90
2023-03-24T16:22:27.493Z,8.55
2023-03-24T16:24:54.384Z,10.10
2023-03-24T16:27:21.508Z,8.10
2023-03-24T16:29:49.458Z,9.45
2023-03-24T16:32:17.095Z,9.88
2023-03-24T16:34:44.190Z,11.55
2023-03-24T16:37:11.628Z,10.32
2023-03-24T16:39:38.363Z,10.43
2023-03-24T16:42:05.762Z,11.80
2023-03-24T16:44:32.651Z,17.15
2023-03-24T16:46:59.821Z,13.38
2023-03-24T16:49:27.167Z,12.90
2023-03-24T16:51:54.438Z,13.15
2023-03-24T16:54:21.430Z,12.20
2023-03-24T16:56:48.722Z,14.23
2023-03-24T16:59:15.992Z,11.55
2023-03-24T17:01:46.019Z,11.80
2023-03-24T17:04:20.537Z,10.95
2023-03-24T17:06:50.854Z,10.30
2023-03-24T17:09:17.776Z,11.07
2023-03-24T17:11:49.210Z,10.43
2023-03-24T17:14:16.302Z,15.57
2023-03-24T17:16:44.755Z,10.55
2023-03-24T17:19:13.068Z,12.10
2023-03-24T17:21:52.048Z,12.65
2023-03-24T17:24:18.887Z,12.23
2023-03-24T17:26:45.949Z,10.07
2023-03-24T17:29:12.982Z,9.07
2023-03-24T17:31:40.530Z,11.60
2023-03-24T17:34:21.576Z,12.05
2023-03-24T17:36:50.840Z,10.48
2023-03-24T17:39:18.403Z,13.82
2023-03-24T17:41:45.625Z,18.40
2023-03-24T17:44:12.468Z,19.58
2023-03-24T17:46:39.640Z,17.55
2023-03-24T17:49:06.883Z,16.63
2023-03-24T17:51:34.065Z,17.30
2023-03-24T17:54:00.863Z,18.63
2023-03-24T17:56:28.072Z,19.48
2023-03-24T17:58:56.328Z,17.63
2023-03-24T18:01:23.807Z,18.92
2023-03-24T18:03:50.780Z,16.65
2023-03-24T18:06:17.829Z,17.73
2023-03-24T18:08:44.640Z,19.55
2023-03-24T18:11:15.038Z,16.38
2023-03-24T18:13:42.530Z,18.00
2023-03-24T18:16:20.665Z,18.40
2023-03-24T18:18:48.603Z,20.35
2023-03-24T18:21:17.724Z,25.45
2023-03-24T18:23:46.422Z,20.42
2023-03-24T18:26:14.139Z,22.50
2023-03-24T18:28:42.140Z,22.25
2023-03-24T18:31:10.558Z,24.60
2023-03-24T18:33:37.393Z,37.65
2023-03-24T18:36:06.025Z,34.20
2023-03-24T18:38:32.823Z,26.77
2023-03-24T18:41:05.039Z,25.48
2023-03-24T18:43:34.591Z,26.70
2023-03-24T18:46:01.718Z,25.33
2023-03-24T18:48:28.531Z,22.42
2023-03-24T18:50:55.614Z,18.20
2023-03-24T18:53:22.625Z,17.67
2023-03-24T18:55:50.949Z,20.85
2023-03-24T18:58:18.173Z,23.08
2023-03-24T19:00:50.062Z,20.40
2023-03-24T19:03:17.308Z,22.73
2023-03-24T19:05:44.670Z,21.15
2023-03-24T19:08:15.038Z,20.55
2023-03-24T19:10:45.715Z,19.13
2023-03-24T19:13:13.074Z,19.23
2023-03-24T19:15:40.432Z,17.95
2023-03-24T19:18:07.699Z,17.35
2023-03-24T19:20:37.857Z,17.73
2023-03-24T19:23:04.735Z,20.42
2023-03-24T19:25:31.877Z,17.33
2023-03-24T19:27:58.730Z,20.45
2023-03-24T19:30:25.876Z,19.25
2023-03-24T19:32:52.684Z,17.10
2023-03-24T19:35:19.841Z,17.30
2023-03-24T19:37:47.169Z,15.68
2023-03-24T19:40:15.573Z,14.45
2023-03-24T19:42:44.795Z,15.82
2023-03-24T19:45:13.380Z,13.00
2023-03-24T19:47:40.501Z,11.23
2023-03-24T19:50:08.113Z,11.23
2023-03-24T19:52:35.107Z,12.05
2023-03-24T19:55:02.546Z,13.60
2023-03-24T19:57:31.860Z,10.63
2023-03-24T19:59:59.073Z,8.70
2023-03-24T20:02:26.073Z,9.15
2023-03-24T20:04:55.279Z,9.63
2023-03-24T20:07:23.076Z,11.75
2023-03-24T20:09:50.391Z,9.32
2023-03-24T20:12:17.170Z,8.57
2023-03-24T20:14:45.467Z,7.90
2023-03-24T20:17:22.722Z,10.57
2023-03-24T20:19:50.764Z,12.15
2023-03-24T20:22:17.583Z,10.88
2023-03-24T20:24:44.739Z,9.90
2023-03-24T20:27:11.590Z,10.10
2023-03-24T20:29:39.723Z,11.77
2023-03-24T20:32:10.087Z,11.05
2023-03-24T20:34:38.098Z,9.57
2023-03-24T20:37:06.175Z,10.90
2023-03-24T20:39:33.783Z,8.95
2023-03-24T20:42:01.005Z,9.32
2023-03-24T20:44:28.291Z,8.93
2023-03-24T20:46:57.230Z,8.63
2023-03-24T20:49:25.875Z,11.35
2023-03-24T20:51:53.291Z,10.68
2023-03-24T20:54:21.279Z,10.43
2023-03-24T20:56:49.934Z,11.45
2023-03-24T20:59:18.302Z,9.55
2023-03-24T21:01:48.581Z,10.63
2023-03-24T21:04:16.943Z,9.18
2023-03-24T21:06:43.907Z,7.97
2023-03-24T21:09:11.039Z,8.48
2023-03-24T21:11:37.863Z,9.63
2023-03-24T21:14:04.974Z,9.63
2023-03-24T21:16:34.046Z,9.68
2023-03-24T21:19:01.904Z,11.48
2023-03-24T21:21:28.930Z,8.05
2023-03-24T21:23:57.629Z,10.63
2023-03-24T21:26:25.309Z,9.70
2023-03-24T21:28:55.253Z,11.82
2023-03-24T21:31:26.972Z,9.50
2023-03-24T21:33:54.423Z,9.35
2023-03-24T21:36:21.844Z,8.82
2023-03-24T21:38:52.154Z,9.27
2023-03-24T21:41:19.584Z,9.02
2023-03-24T21:43:47.015Z,7.15
2023-03-24T21:46:20.996Z,6.40
2023-03-24T21:48:52.219Z,7.70
2023-03-24T21:51:20.772Z,8.40
2023-03-24T21:53:47.828Z,7.70
2023-03-24T21:56:14.752Z,7.28
2023-03-24T21:58:42.207Z,6.97
2023-03-24T22:01:09.138Z,7.97
2023-03-24T22:03:37.368Z,6.20
2023-03-24T22:06:10.746Z,6.28
2023-03-24T22:08:38.963Z,5.90
2023-03-24T22:11:06.275Z,7.20
2023-03-24T22:13:33.519Z,5.60
2023-03-24T22:16:02.120Z,5.65
2023-03-24T22:18:31.187Z,5.70
2023-03-24T22:21:08.005Z,7.97
2023-03-24T22:23:38.042Z,8.63
2023-03-24T22:26:10.387Z,9.93
2023-03-24T22:28:37.630Z,9.05
2023-03-24T22:31:09.158Z,7.95
2023-03-24T22:33:36.657Z,8.63
2023-03-24T22:36:03.733Z,9.07
2023-03-24T22:38:30.978Z,8.23
2023-03-24T22:40:58.794Z,10.65
2023-03-24T22:43:26.517Z,9.82
2023-03-24T22:45:53.352Z,9.32
2023-03-24T22:48:20.618Z,11.07
2023-03-24T22:50:48.281Z,9.73
2023-03-24T22:53:15.744Z,10.18
2023-03-24T22:55:44.592Z,10.70
2023-03-24T22:58:14.762Z,9.40
2023-03-24T23:00:42.096Z,11.65
2023-03-24T23:03:09.722Z,9.80
2023-03-24T23:05:43.721Z,9.18
2023-03-24T23:08:11.793Z,10.77
2023-03-24T23:10:39.014Z,8.25
2023-03-24T23:13:06.193Z,9.65
2023-03-24T23:15:33.006Z,10.10
2023-03-24T23:18:00.147Z,11.23
2023-03-24T23:20:28.239Z,12.60
2023-03-24T23:22:56.753Z,9.95
2023-03-24T23:25:23.626Z,13.73
2023-03-24T23:27:50.833Z,12.35
2023-03-24T23:30:18.081Z,9.52
2023-03-24T23:32:46.868Z,10.65
2023-03-24T23:35:14.184Z,9.40
2023-03-24T23:37:41.457Z,9.45
2023-03-24T23:40:12.797Z,8.35
2023-03-24T23:42:44.330Z,10.07
2023-03-24T23:45:14.648Z,10.02
2023-03-24T23:47:42.779Z,8.90
2023-03-24T23:50:09.905Z,9.32
2023-03-24T23:52:37.411Z,7.95
2023-03-24T23:55:04.849Z,7.72
2023-03-24T23:57:31.921Z,7.15
2023-03-24T23:59:59.958Z,6.45
